createdAt,value
2023-03-27T01:56:26.742Z,5.15
2023-03-27T01:59:04.233Z,5.90
2023-03-27T02:01:37.089Z,6.55
2023-03-27T02:04:07.780Z,5.00
2023-03-27T02:06:59.240Z,5.05
2023-03-27T02:09:32.035Z,5.05
2023-03-27T02:12:05.003Z,5.25
2023-03-27T02:14:36.613Z,5.82
2023-03-27T02:17:10.477Z,5.75
2023-03-27T02:20:11.044Z,5.00
2023-03-27T02:22:40.255Z,6.25
2023-03-27T02:25:26.866Z,5.53
2023-03-27T02:28:09.718Z,4.82
2023-03-27T02:31:06.499Z,5.18
2023-03-27T02:33:59.821Z,4.70
2023-03-27T02:36:38.150Z,4.57
2023-03-27T02:39:21.250Z,5.53
2023-03-27T02:42:23.629Z,7.25
2023-03-27T02:45:07.703Z,5.03
2023-03-27T02:47:43.672Z,4.38
2023-03-27T02:50:42.795Z,5.53
2023-03-27T02:53:14.157Z,5.30
2023-03-27T02:55:45.682Z,8.63
2023-03-27T02:58:19.558Z,10.50
2023-03-27T03:00:56.290Z,7.00
2023-03-27T03:03:55.234Z,6.32
2023-03-27T03:06:59.275Z,8.57
2023-03-27T03:09:28.091Z,7.70
2023-03-27T03:11:56.188Z,5.63
2023-03-27T03:14:31.755Z,9.18
2023-03-27T03:16:59.881Z,7.93
2023-03-27T03:19:27.588Z,5.22
2023-03-27T03:21:55.889Z,6.13
2023-03-27T03:24:23.559Z,6.43
2023-03-27T03:26:52.199Z,4.38
2023-03-27T03:29:20.634Z,7.80
2023-03-27T03:32:08.692Z,4.78
2023-03-27T03:34:37.290Z,6.35
2023-03-27T03:37:05.487Z,7.00
2023-03-27T03:39:33.265Z,6.72
2023-03-27T03:42:01.149Z,6.63
2023-03-27T03:44:29.169Z,7.32
2023-03-27T03:46:58.061Z,6.60
2023-03-27T03:49:27.367Z,4.13
2023-03-27T03:52:03.619Z,4.53
2023-03-27T03:54:33.557Z,3.78
2023-03-27T03:57:01.404Z,5.75
2023-03-27T03:59:30.245Z,6.10
2023-03-27T04:02:30.367Z,5.15
2023-03-27T04:05:09.445Z,5.20
2023-03-27T04:07:40.441Z,4.95
2023-03-27T04:10:27.843Z,5.15
2023-03-27T04:12:56.365Z,7.90
2023-03-27T04:15:31.252Z,4.25
2023-03-27T04:18:05.319Z,3.80
2023-03-27T04:20:34.916Z,4.70
2023-03-27T04:23:05.344Z,4.88
2023-03-27T04:25:38.238Z,6.50
2023-03-27T04:28:06.891Z,5.35
2023-03-27T04:33:24.882Z,3.28
2023-03-27T04:36:05.654Z,3.75
2023-03-27T04:38:54.422Z,3.58
2023-03-27T04:41:23.371Z,3.97
2023-03-27T04:43:51.308Z,3.50
2023-03-27T04:46:19.017Z,4.40
2023-03-27T04:48:52.583Z,5.13
2023-03-27T04:51:42.027Z,5.20
2023-03-27T04:54:11.471Z,4.43
2023-03-27T04:59:11.252Z,3.25
2023-03-27T05:01:40.297Z,3.42
2023-03-27T05:04:32.777Z,3.22
2023-03-27T05:07:12.466Z,5.35
2023-03-27T05:09:40.438Z,3.67
2023-03-27T05:12:09.270Z,2.83
2023-03-27T05:14:43.040Z,3.88
2023-03-27T05:17:26.248Z,4.43
2023-03-27T05:19:55.195Z,4.03
2023-03-27T05:22:22.909Z,3.35
2023-03-27T05:24:58.955Z,4.55
2023-03-27T05:27:28.460Z,3.72
2023-03-27T05:29:57.862Z,4.03
2023-03-27T05:32:25.660Z,3.83
2023-03-27T05:35:04.793Z,3.13
2023-03-27T05:37:40.024Z,3.15
2023-03-27T05:40:25.770Z,3.20
2023-03-27T05:42:55.002Z,3.83
2023-03-27T05:45:28.080Z,4.00
2023-03-27T05:47:59.051Z,5.18
2023-03-27T05:50:35.043Z,2.70
2023-03-27T05:53:10.146Z,4.80
2023-03-27T05:55:42.845Z,3.05
2023-03-27T05:58:11.989Z,5.13
2023-03-27T06:00:44.540Z,2.55
2023-03-27T06:03:20.492Z,3.45
2023-03-27T06:06:10.471Z,3.30
2023-03-27T06:08:38.856Z,3.28
2023-03-27T06:11:10.872Z,4.03
2023-03-27T06:13:46.226Z,3.90
2023-03-27T06:16:20.983Z,3.35
2023-03-27T06:19:14.835Z,3.97
2023-03-27T06:21:49.268Z,3.60
2023-03-27T06:24:17.213Z,2.90
2023-03-27T06:26:45.274Z,3.92
2023-03-27T06:29:13.518Z,3.63
2023-03-27T06:31:48.122Z,3.70
2023-03-27T06:34:38.358Z,3.70
2023-03-27T06:37:33.915Z,2.92
2023-03-27T06:40:02.297Z,3.17
2023-03-27T06:42:30.183Z,3.45
2023-03-27T06:45:22.556Z,2.13
2023-03-27T06:48:21.499Z,2.90
2023-03-27T06:50:53.496Z,2.17
2023-03-27T06:55:52.153Z,2.78
2023-03-27T06:58:22.103Z,2.65
2023-03-27T07:00:50.531Z,3.53
2023-03-27T07:03:20.340Z,4.25
2023-03-27T07:06:23.064Z,2.83
2023-03-27T07:08:59.132Z,2.40
2023-03-27T07:11:27.573Z,3.20
2023-03-27T07:14:01.131Z,4.20
2023-03-27T07:16:31.419Z,3.03
2023-03-27T07:19:01.737Z,2.13
2023-03-27T07:21:31.883Z,2.88
2023-03-27T07:24:00.699Z,2.13
2023-03-27T07:26:34.402Z,3.45
2023-03-27T07:29:12.670Z,2.38
2023-03-27T07:31:55.759Z,3.00
2023-03-27T07:34:44.890Z,2.33
2023-03-27T07:37:32.846Z,2.30
2023-03-27T07:40:29.362Z,3.63
2023-03-27T07:43:39.289Z,2.25
2023-03-27T07:46:07.836Z,3.33
2023-03-27T07:48:36.116Z,3.20
2023-03-27T07:51:13.279Z,2.13
2023-03-27T07:53:43.998Z,3.30
2023-03-27T07:56:23.651Z,2.83
2023-03-27T07:59:09.679Z,2.70
2023-03-27T08:01:38.597Z,2.85
2023-03-27T08:04:07.369Z,2.92
2023-03-27T08:06:37.408Z,2.80
2023-03-27T08:09:13.342Z,3.88
2023-03-27T08:11:41.681Z,2.92
2023-03-27T08:14:09.516Z,2.28
2023-03-27T08:16:38.588Z,2.55
2023-03-27T08:19:06.923Z,2.35
2023-03-27T08:21:39.152Z,2.05
2023-03-27T08:24:07.611Z,3.08
2023-03-27T08:26:36.450Z,3.17
2023-03-27T08:29:09.345Z,2.50
2023-03-27T08:31:39.653Z,2.50
2023-03-27T08:34:07.554Z,2.63
2023-03-27T08:36:46.845Z,2.78
2023-03-27T08:39:15.951Z,2.95
2023-03-27T08:41:59.443Z,3.33
2023-03-27T08:44:35.634Z,3.30
2023-03-27T08:47:18.680Z,3.65
2023-03-27T08:50:07.034Z,3.22
2023-03-27T08:52:49.736Z,3.45
2023-03-27T08:55:34.632Z,2.00
2023-03-27T08:58:21.660Z,4.15
2023-03-27T09:01:26.495Z,2.45
2023-03-27T09:04:32.534Z,3.05
2023-03-27T09:07:24.941Z,2.75
2023-03-27T09:10:16.113Z,3.65
2023-03-27T09:13:11.968Z,3.15
2023-03-27T09:15:56.504Z,3.72
2023-03-27T09:18:34.369Z,2.58
2023-03-27T09:21:09.230Z,4.72
2023-03-27T09:23:43.737Z,3.42
2023-03-27T09:26:36.966Z,2.58
2023-03-27T09:29:34.844Z,2.80
2023-03-27T09:32:15.199Z,3.97
2023-03-27T09:34:44.511Z,2.90
2023-03-27T09:37:17.414Z,2.90
2023-03-27T09:39:50.574Z,2.53
2023-03-27T09:42:37.947Z,2.28
2023-03-27T09:45:08.144Z,2.92
2023-03-27T09:48:02.344Z,3.55
2023-03-27T09:50:49.413Z,3.53
2023-03-27T09:53:39.878Z,3.83
2023-03-27T09:56:19.231Z,3.40
2023-03-27T09:58:54.102Z,3.53
2023-03-27T10:01:38.579Z,3.40
2023-03-27T10:04:18.010Z,3.72
2023-03-27T10:07:00.370Z,2.63
2023-03-27T10:10:04.223Z,3.00
2023-03-27T10:12:36.619Z,3.33
2023-03-27T10:15:31.555Z,3.92
2023-03-27T10:18:02.307Z,3.33
2023-03-27T10:20:31.425Z,3.30
2023-03-27T10:23:07.865Z,3.95
2023-03-27T10:25:40.123Z,3.28
2023-03-27T10:28:23.667Z,3.97
2023-03-27T10:31:35.005Z,3.60
2023-03-27T10:34:29.120Z,4.38
2023-03-27T10:37:34.426Z,3.92
2023-03-27T10:40:26.135Z,3.92
2023-03-27T10:43:01.285Z,2.47
2023-03-27T10:45:31.715Z,3.35
2023-03-27T10:48:01.957Z,2.83
2023-03-27T10:50:45.875Z,4.25
2023-03-27T10:53:43.149Z,3.10
2023-03-27T10:56:41.402Z,4.82
2023-03-27T10:59:42.245Z,2.67
2023-03-27T11:02:51.203Z,2.92
2023-03-27T11:05:26.560Z,2.40
2023-03-27T11:08:06.148Z,3.78
2023-03-27T11:10:42.378Z,3.40
2023-03-27T11:13:19.940Z,4.32
2023-03-27T11:16:17.264Z,2.85
2023-03-27T11:19:11.120Z,3.65
2023-03-27T11:22:26.573Z,3.33
2023-03-27T11:24:59.402Z,3.67
2023-03-27T11:27:41.476Z,2.40
2023-03-27T11:30:34.378Z,3.40
2023-03-27T11:33:17.115Z,5.63
2023-03-27T11:35:50.358Z,5.18
2023-03-27T11:38:45.857Z,3.58
2023-03-27T11:41:15.433Z,2.40
2023-03-27T11:43:43.988Z,3.08
2023-03-27T11:46:39.188Z,2.17
2023-03-27T11:49:29.221Z,2.53
2023-03-27T11:52:03.054Z,3.42
2023-03-27T11:54:40.368Z,3.47
2023-03-27T11:57:24.934Z,3.13
2023-03-27T12:00:07.131Z,3.40
2023-03-27T12:03:22.714Z,2.72
2023-03-27T12:06:05.976Z,3.08
2023-03-27T12:08:52.291Z,3.92
2023-03-27T12:11:22.380Z,3.45
2023-03-27T12:14:02.164Z,3.57
2023-03-27T12:16:47.631Z,3.22
2023-03-27T12:19:57.038Z,3.47
2023-03-27T12:22:44.800Z,2.95
2023-03-27T12:25:35.876Z,3.25
2023-03-27T12:28:41.059Z,2.88
2023-03-27T12:31:44.213Z,4.00
2023-03-27T12:34:34.267Z,3.10
2023-03-27T12:37:04.511Z,3.08
2023-03-27T12:39:32.357Z,3.17
2023-03-27T12:42:22.986Z,2.80
2023-03-27T12:45:09.973Z,2.63
2023-03-27T12:47:38.393Z,2.47
2023-03-27T12:50:21.626Z,4.30
2023-03-27T12:52:53.469Z,1.95
2023-03-27T12:55:35.853Z,3.42
2023-03-27T12:58:05.389Z,2.60
2023-03-27T13:01:00.739Z,2.47
2023-03-27T13:04:26.619Z,2.55
2023-03-27T13:06:56.160Z,3.75
2023-03-27T13:09:47.730Z,2.60
2023-03-27T13:12:34.272Z,2.63
2023-03-27T13:15:14.974Z,2.08
2023-03-27T13:17:49.446Z,2.60
2023-03-27T13:20:53.143Z,2.25
2023-03-27T13:23:45.952Z,1.92
2023-03-27T13:26:27.864Z,2.67
2023-03-27T13:28:57.610Z,2.33
2023-03-27T13:31:50.397Z,2.10
2023-03-27T13:34:29.766Z,2.60
2023-03-27T13:37:11.568Z,2.67
2023-03-27T13:40:01.613Z,2.83
2023-03-27T13:42:37.507Z,2.63
2023-03-27T13:47:52.074Z,2.40
2023-03-27T13:50:45.139Z,1.58
2023-03-27T13:53:28.549Z,1.50
2023-03-27T13:56:16.159Z,3.08
2023-03-27T13:59:30.189Z,1.58
2023-03-27T14:02:11.164Z,2.17
2023-03-27T14:04:43.039Z,2.05
2023-03-27T14:07:32.676Z,2.40
2023-03-27T14:10:37.629Z,1.70
2023-03-27T14:13:27.623Z,1.83
2023-03-27T14:16:16.251Z,1.65
2023-03-27T14:19:16.541Z,1.95
2023-03-27T14:22:01.120Z,2.05
2023-03-27T14:24:38.577Z,1.95
2023-03-27T14:27:17.620Z,2.05
2023-03-27T14:29:46.471Z,1.70
2023-03-27T14:32:18.237Z,2.78
2023-03-27T14:35:02.791Z,1.48
2023-03-27T14:37:42.073Z,2.78
2023-03-27T14:40:34.903Z,2.75
2023-03-27T14:43:07.421Z,3.42
2023-03-27T14:48:10.549Z,3.38
2023-03-27T14:50:46.728Z,3.55
2023-03-27T14:53:18.936Z,2.63
2023-03-27T14:56:18.737Z,2.95
2023-03-27T15:01:40.436Z,3.10
2023-03-27T15:04:11.232Z,3.00
2023-03-27T15:06:42.030Z,2.70
2023-03-27T15:09:28.163Z,3.00
2023-03-27T15:12:14.656Z,3.83
2023-03-27T15:14:42.583Z,2.80
2023-03-27T15:17:15.490Z,3.03
2023-03-27T15:19:48.625Z,1.85
2023-03-27T15:22:30.311Z,2.55
2023-03-27T15:25:05.686Z,4.68
2023-03-27T15:27:36.978Z,3.72
2023-03-27T15:30:16.545Z,2.92
2023-03-27T15:32:51.025Z,3.40
2023-03-27T15:35:41.931Z,2.78
2023-03-27T15:38:14.255Z,2.88
2023-03-27T15:40:44.115Z,3.20
2023-03-27T15:43:15.057Z,2.88
2023-03-27T15:45:54.392Z,3.30
2023-03-27T15:48:30.485Z,3.60
2023-03-27T15:51:20.811Z,2.78
2023-03-27T15:53:51.120Z,3.67
2023-03-27T15:56:26.516Z,3.08
2023-03-27T15:59:06.637Z,3.30
2023-03-27T16:01:44.237Z,3.22
2023-03-27T16:04:16.745Z,3.63
2023-03-27T16:06:54.650Z,3.28
2023-03-27T16:09:26.161Z,2.50
2023-03-27T16:11:55.461Z,3.08
2023-03-27T16:14:41.373Z,2.65
2023-03-27T16:17:11.692Z,3.60
2023-03-27T16:19:54.054Z,2.53
2023-03-27T16:22:32.798Z,3.25
2023-03-27T16:25:02.235Z,3.42
2023-03-27T16:27:39.068Z,3.60
2023-03-27T16:30:09.426Z,3.25
2023-03-27T16:32:37.240Z,3.60
2023-03-27T16:35:05.289Z,7.47
2023-03-27T16:37:33.016Z,2.92
2023-03-27T16:40:00.697Z,4.20
2023-03-27T16:42:28.506Z,3.40
2023-03-27T16:44:56.441Z,3.72
2023-03-27T16:47:24.935Z,3.55
2023-03-27T16:50:10.360Z,3.40
2023-03-27T16:52:39.165Z,3.40
2023-03-27T16:55:08.110Z,4.55
2023-03-27T16:57:36.557Z,7.95
2023-03-27T17:00:05.786Z,7.25
2023-03-27T17:02:35.077Z,15.75
2023-03-27T17:05:08.291Z,11.45
2023-03-27T17:07:36.581Z,10.85
2023-03-27T17:10:05.368Z,11.10
2023-03-27T17:12:33.216Z,10.85
2023-03-27T17:15:00.969Z,13.90
2023-03-27T17:17:32.069Z,13.57
2023-03-27T17:20:00.753Z,14.32
2023-03-27T17:22:30.256Z,14.02
2023-03-27T17:25:01.318Z,13.70
2023-03-27T17:27:29.422Z,14.23
2023-03-27T17:29:57.684Z,11.85
2023-03-27T17:32:26.949Z,11.07
2023-03-27T17:34:56.064Z,13.73
2023-03-27T17:37:24.193Z,9.82
2023-03-27T17:39:52.141Z,9.60
2023-03-27T17:42:19.808Z,11.50
2023-03-27T17:44:47.748Z,9.57
2023-03-27T17:47:15.703Z,8.60
2023-03-27T17:49:45.300Z,11.00
2023-03-27T17:52:14.346Z,8.80
2023-03-27T17:54:42.118Z,8.82
2023-03-27T17:57:10.502Z,9.73
2023-03-27T17:59:38.611Z,10.95
2023-03-27T18:02:07.551Z,10.05
2023-03-27T18:04:35.622Z,8.90
2023-03-27T18:07:03.343Z,10.02
2023-03-27T18:09:33.427Z,9.50
2023-03-27T18:12:01.615Z,8.45
2023-03-27T18:14:29.427Z,8.95
2023-03-27T18:16:57.364Z,9.73
2023-03-27T18:19:26.155Z,7.57
2023-03-27T18:21:54.131Z,9.23
2023-03-27T18:24:22.091Z,9.30
2023-03-27T18:26:49.819Z,9.30
2023-03-27T18:29:17.578Z,8.05
2023-03-27T18:31:45.793Z,11.60
2023-03-27T18:34:14.137Z,9.00
2023-03-27T18:36:42.547Z,8.27
2023-03-27T18:39:10.220Z,10.00
